Deltaville, Virginia
Current Conditions -  °F | °C
As of 11:15 PM on Tuesday 27 Jan 2015 (Local Time) from KW75 Reporting Station
Overcast Overcast  
Wind Chill: 24°   Ceiling: 10000
Heat Index: 32°   Visibility: 10mi
Dew Point: 20°   Wind: 9mph
Humidity: 62%   Direction: 340°NNW
Pressure: 29.93"   Gusts: 21mph
Location:  37.56°N, 76.34°W
Report Text: KW75 280415Z AUTO 34008G18KT 10SM OVC100 00/M06 A2993 RMK AO1 T10011065
Loading
Personal Weather Stations






























Interactive Weather Map New forecast layout! Learn more

10-Day Weather Forecast

Advertisements
Track Severe Weather on mobile